Urb Santa Maria Mayor, Puerto Rico
Current Conditions -  °F | °C
As of 9:53 AM on Wednesday 28 Jan 2015 (Local Time) from TJNR Reporting Station
Clear Clear  
Wind Chill: 81°   Ceiling: Unl
Heat Index: 85°   Visibility: 10mi
Dew Point: 71°   Wind: 10mph
Humidity: 72%   Direction: 120°ESE
Pressure: 30.07"   Gusts: NA
Location:  18.1494°N, 65.8294°W
Report Text: TJNR 281353Z AUTO 12009KT 10SM CLR 27/22 A3007 RMK AO2 SLP183 T02720217
Loading
Personal Weather Stations






























Interactive Weather Map New forecast layout! Learn more

10-Day Weather Forecast

Advertisements
Track Severe Weather on mobile